sensor_id;sensor_type;location;lat;lon;timestamp;temperature;humidity
46932;DHT22;32670;51.464;11.964;2023-03-01T00:00:39;20.90;48.90
46932;DHT22;32670;51.464;11.964;2023-03-01T00:03:05;21.00;48.90
46932;DHT22;32670;51.464;11.964;2023-03-01T00:05:30;20.90;48.90
46932;DHT22;32670;51.464;11.964;2023-03-01T00:07:56;20.90;48.90
46932;DHT22;32670;51.464;11.964;2023-03-01T00:10:21;20.90;48.90
46932;DHT22;32670;51.464;11.964;2023-03-01T00:12:46;20.90;48.90
46932;DHT22;32670;51.464;11.964;2023-03-01T00:15:12;20.90;49.00
46932;DHT22;32670;51.464;11.964;2023-03-01T00:17:37;21.00;49.20
46932;DHT22;32670;51.464;11.964;2023-03-01T00:20:04;20.90;48.90
46932;DHT22;32670;51.464;11.964;2023-03-01T00:22:33;21.00;48.60
46932;DHT22;32670;51.464;11.964;2023-03-01T00:24:58;21.00;49.30
46932;DHT22;32670;51.464;11.964;2023-03-01T00:27:24;21.00;49.20
46932;DHT22;32670;51.464;11.964;2023-03-01T00:29:49;21.00;49.20
46932;DHT22;32670;51.464;11.964;2023-03-01T00:32:15;21.00;49.30
46932;DHT22;32670;51.464;11.964;2023-03-01T00:34:40;21.00;49.20
46932;DHT22;32670;51.464;11.964;2023-03-01T00:37:05;21.00;49.30
46932;DHT22;32670;51.464;11.964;2023-03-01T00:39:31;21.00;49.40
46932;DHT22;32670;51.464;11.964;2023-03-01T00:41:57;21.00;49.60
46932;DHT22;32670;51.464;11.964;2023-03-01T00:44:23;21.10;49.60
46932;DHT22;32670;51.464;11.964;2023-03-01T00:46:48;21.10;49.60
46932;DHT22;32670;51.464;11.964;2023-03-01T00:49:14;21.10;49.70
46932;DHT22;32670;51.464;11.964;2023-03-01T00:51:40;21.10;49.70
46932;DHT22;32670;51.464;11.964;2023-03-01T00:54:08;21.10;49.70
46932;DHT22;32670;51.464;11.964;2023-03-01T00:56:34;21.00;49.70
46932;DHT22;32670;51.464;11.964;2023-03-01T00:59:00;21.10;49.60
46932;DHT22;32670;51.464;11.964;2023-03-01T01:01:28;21.10;49.70
46932;DHT22;32670;51.464;11.964;2023-03-01T01:03:59;21.10;49.70
46932;DHT22;32670;51.464;11.964;2023-03-01T01:06:28;21.10;49.80
46932;DHT22;32670;51.464;11.964;2023-03-01T01:08:55;21.10;49.80
46932;DHT22;32670;51.464;11.964;2023-03-01T01:11:23;21.10;49.80
46932;DHT22;32670;51.464;11.964;2023-03-01T01:13:49;21.10;49.80
46932;DHT22;32670;51.464;11.964;2023-03-01T01:16:16;21.10;49.90
46932;DHT22;32670;51.464;11.964;2023-03-01T01:18:42;21.10;49.90
46932;DHT22;32670;51.464;11.964;2023-03-01T01:21:10;21.10;50.30
46932;DHT22;32670;51.464;11.964;2023-03-01T01:23:37;21.10;50.20
46932;DHT22;32670;51.464;11.964;2023-03-01T01:26:27;21.10;50.20
46932;DHT22;32670;51.464;11.964;2023-03-01T01:28:53;21.20;50.30
46932;DHT22;32670;51.464;11.964;2023-03-01T01:31:19;21.10;50.30
46932;DHT22;32670;51.464;11.964;2023-03-01T01:33:45;21.10;50.20
46932;DHT22;32670;51.464;11.964;2023-03-01T01:36:11;21.10;50.10
46932;DHT22;32670;51.464;11.964;2023-03-01T01:38:38;21.20;50.40
46932;DHT22;32670;51.464;11.964;2023-03-01T01:41:05;21.20;50.30
46932;DHT22;32670;51.464;11.964;2023-03-01T01:43:34;21.10;50.30
46932;DHT22;32670;51.464;11.964;2023-03-01T01:46:47;21.10;50.40
46932;DHT22;32670;51.464;11.964;2023-03-01T01:48:52;21.20;50.30
46932;DHT22;32670;51.464;11.964;2023-03-01T01:51:23;21.20;50.40
46932;DHT22;32670;51.464;11.964;2023-03-01T01:53:53;21.20;50.40
46932;DHT22;32670;51.464;11.964;2023-03-01T01:56:21;21.20;50.50
46932;DHT22;32670;51.464;11.964;2023-03-01T01:58:49;21.20;51.10
46932;DHT22;32670;51.464;11.964;2023-03-01T02:01:15;21.20;50.60
46932;DHT22;32670;51.464;11.964;2023-03-01T02:03:43;21.20;50.50
46932;DHT22;32670;51.464;11.964;2023-03-01T02:06:21;21.20;50.50
46932;DHT22;32670;51.464;11.964;2023-03-01T02:08:48;21.20;50.90
46932;DHT22;32670;51.464;11.964;2023-03-01T02:11:14;21.20;50.80
46932;DHT22;32670;51.464;11.964;2023-03-01T02:13:40;21.20;50.70
46932;DHT22;32670;51.464;11.964;2023-03-01T02:16:12;21.20;50.80
46932;DHT22;32670;51.464;11.964;2023-03-01T02:18:39;21.20;50.70
46932;DHT22;32670;51.464;11.964;2023-03-01T02:23:39;21.30;50.70
46932;DHT22;32670;51.464;11.964;2023-03-01T02:26:35;21.20;50.70
46932;DHT22;32670;51.464;11.964;2023-03-01T02:29:06;21.20;50.90
46932;DHT22;32670;51.464;11.964;2023-03-01T02:31:32;21.20;50.70
46932;DHT22;32670;51.464;11.964;2023-03-01T02:34:10;21.30;50.80
46932;DHT22;32670;51.464;11.964;2023-03-01T02:36:39;21.30;50.70
46932;DHT22;32670;51.464;11.964;2023-03-01T02:39:07;21.30;50.80
46932;DHT22;32670;51.464;11.964;2023-03-01T02:41:41;21.30;50.70
46932;DHT22;32670;51.464;11.964;2023-03-01T02:44:08;21.30;50.70
46932;DHT22;32670;51.464;11.964;2023-03-01T02:46:34;21.30;50.70
46932;DHT22;32670;51.464;11.964;2023-03-01T02:49:20;21.30;50.70
46932;DHT22;32670;51.464;11.964;2023-03-01T02:54:40;21.20;50.60
46932;DHT22;32670;51.464;11.964;2023-03-01T02:57:08;21.20;50.50
46932;DHT22;32670;51.464;11.964;2023-03-01T02:59:35;21.30;50.50
46932;DHT22;32670;51.464;11.964;2023-03-01T03:02:05;21.30;50.50
46932;DHT22;32670;51.464;11.964;2023-03-01T03:04:31;21.20;50.50
46932;DHT22;32670;51.464;11.964;2023-03-01T03:06:57;21.30;50.70
46932;DHT22;32670;51.464;11.964;2023-03-01T03:09:22;21.30;50.90
46932;DHT22;32670;51.464;11.964;2023-03-01T03:11:48;21.30;51.00
46932;DHT22;32670;51.464;11.964;2023-03-01T03:14:15;21.30;51.00
46932;DHT22;32670;51.464;11.964;2023-03-01T03:16:42;21.30;51.00
46932;DHT22;32670;51.464;11.964;2023-03-01T03:19:09;21.30;51.00
46932;DHT22;32670;51.464;11.964;2023-03-01T03:21:34;21.30;50.90
46932;DHT22;32670;51.464;11.964;2023-03-01T03:24:00;21.30;51.00
46932;DHT22;32670;51.464;11.964;2023-03-01T03:26:25;21.30;51.00
46932;DHT22;32670;51.464;11.964;2023-03-01T03:28:51;21.30;51.00
46932;DHT22;32670;51.464;11.964;2023-03-01T03:31:16;21.30;51.10
46932;DHT22;32670;51.464;11.964;2023-03-01T03:33:42;21.30;51.00
46932;DHT22;32670;51.464;11.964;2023-03-01T03:36:07;21.30;51.10
46932;DHT22;32670;51.464;11.964;2023-03-01T03:38:39;21.30;51.10
46932;DHT22;32670;51.464;11.964;2023-03-01T03:41:07;21.30;51.10
46932;DHT22;32670;51.464;11.964;2023-03-01T03:43:36;21.30;51.20
46932;DHT22;32670;51.464;11.964;2023-03-01T03:46:02;21.30;51.10
46932;DHT22;32670;51.464;11.964;2023-03-01T03:48:33;21.30;51.00
46932;DHT22;32670;51.464;11.964;2023-03-01T03:50:59;21.30;51.20
46932;DHT22;32670;51.464;11.964;2023-03-01T03:53:27;21.30;51.10
46932;DHT22;32670;51.464;11.964;2023-03-01T03:55:53;21.30;51.10
46932;DHT22;32670;51.464;11.964;2023-03-01T03:58:20;21.30;51.10
46932;DHT22;32670;51.464;11.964;2023-03-01T04:00:48;21.30;51.10
46932;DHT22;32670;51.464;11.964;2023-03-01T04:03:15;21.30;51.20
46932;DHT22;32670;51.464;11.964;2023-03-01T04:05:41;21.30;51.50
46932;DHT22;32670;51.464;11.964;2023-03-01T04:08:08;21.30;51.40
46932;DHT22;32670;51.464;11.964;2023-03-01T04:10:44;21.30;51.40
46932;DHT22;32670;51.464;11.964;2023-03-01T04:13:12;21.30;51.40
46932;DHT22;32670;51.464;11.964;2023-03-01T04:15:38;21.30;51.40
46932;DHT22;32670;51.464;11.964;2023-03-01T04:18:04;21.30;51.30
46932;DHT22;32670;51.464;11.964;2023-03-01T04:20:32;21.30;51.30
46932;DHT22;32670;51.464;11.964;2023-03-01T04:23:04;21.30;51.50
46932;DHT22;32670;51.464;11.964;2023-03-01T04:25:51;21.30;51.50
46932;DHT22;32670;51.464;11.964;2023-03-01T04:28:21;21.30;51.50
46932;DHT22;32670;51.464;11.964;2023-03-01T04:30:46;21.30;51.50
46932;DHT22;32670;51.464;11.964;2023-03-01T04:33:12;21.30;51.50
46932;DHT22;32670;51.464;11.964;2023-03-01T04:35:38;21.30;51.70
46932;DHT22;32670;51.464;11.964;2023-03-01T04:38:05;21.30;51.60
46932;DHT22;32670;51.464;11.964;2023-03-01T04:40:31;21.30;51.80
46932;DHT22;32670;51.464;11.964;2023-03-01T04:42:56;21.30;51.00
46932;DHT22;32670;51.464;11.964;2023-03-01T04:45:22;21.30;50.10
46932;DHT22;32670;51.464;11.964;2023-03-01T04:47:48;21.30;50.30
46932;DHT22;32670;51.464;11.964;2023-03-01T04:50:16;21.30;50.90
46932;DHT22;32670;51.464;11.964;2023-03-01T04:52:42;21.30;51.10
46932;DHT22;32670;51.464;11.964;2023-03-01T04:55:09;21.30;51.10
46932;DHT22;32670;51.464;11.964;2023-03-01T04:57:34;21.40;51.10
46932;DHT22;32670;51.464;11.964;2023-03-01T05:00:00;21.30;51.30
46932;DHT22;32670;51.464;11.964;2023-03-01T05:02:26;21.40;51.20
46932;DHT22;32670;51.464;11.964;2023-03-01T05:04:51;21.40;51.20
46932;DHT22;32670;51.464;11.964;2023-03-01T05:07:17;21.30;51.20
46932;DHT22;32670;51.464;11.964;2023-03-01T05:09:47;21.30;51.30
46932;DHT22;32670;51.464;11.964;2023-03-01T05:12:13;21.30;51.30
46932;DHT22;32670;51.464;11.964;2023-03-01T05:14:40;21.40;51.50
46932;DHT22;32670;51.464;11.964;2023-03-01T05:17:06;21.40;51.50
46932;DHT22;32670;51.464;11.964;2023-03-01T05:19:32;21.40;51.50
46932;DHT22;32670;51.464;11.964;2023-03-01T05:21:58;21.30;51.60
46932;DHT22;32670;51.464;11.964;2023-03-01T05:24:31;21.30;51.60
46932;DHT22;32670;51.464;11.964;2023-03-01T05:26:57;21.30;51.50
46932;DHT22;32670;51.464;11.964;2023-03-01T05:29:24;21.40;51.80
46932;DHT22;32670;51.464;11.964;2023-03-01T05:31:54;21.40;51.80
46932;DHT22;32670;51.464;11.964;2023-03-01T05:34:23;21.30;51.50
46932;DHT22;32670;51.464;11.964;2023-03-01T05:36:51;21.40;51.70
46932;DHT22;32670;51.464;11.964;2023-03-01T05:39:22;21.40;51.60
46932;DHT22;32670;51.464;11.964;2023-03-01T05:41:51;21.40;51.60
46932;DHT22;32670;51.464;11.964;2023-03-01T05:44:17;21.40;51.70
46932;DHT22;32670;51.464;11.964;2023-03-01T05:46:42;21.40;51.80
46932;DHT22;32670;51.464;11.964;2023-03-01T05:49:08;21.40;50.90
46932;DHT22;32670;51.464;11.964;2023-03-01T05:51:33;21.40;51.40
46932;DHT22;32670;51.464;11.964;2023-03-01T05:53:59;21.40;51.60
46932;DHT22;32670;51.464;11.964;2023-03-01T05:56:24;21.40;51.60
46932;DHT22;32670;51.464;11.964;2023-03-01T05:58:50;21.40;51.60
46932;DHT22;32670;51.464;11.964;2023-03-01T06:01:16;21.40;51.80
46932;DHT22;32670;51.464;11.964;2023-03-01T06:03:41;21.40;52.00
46932;DHT22;32670;51.464;11.964;2023-03-01T06:06:07;21.40;52.70
46932;DHT22;32670;51.464;11.964;2023-03-01T06:08:32;21.40;52.20
46932;DHT22;32670;51.464;11.964;2023-03-01T06:10:58;21.40;52.30
46932;DHT22;32670;51.464;11.964;2023-03-01T06:13:24;21.40;52.80
46932;DHT22;32670;51.464;11.964;2023-03-01T06:15:49;21.40;52.20
46932;DHT22;32670;51.464;11.964;2023-03-01T06:18:15;21.40;52.20
46932;DHT22;32670;51.464;11.964;2023-03-01T06:20:40;21.40;52.20
46932;DHT22;32670;51.464;11.964;2023-03-01T06:23:06;21.40;52.10
46932;DHT22;32670;51.464;11.964;2023-03-01T06:25:31;21.40;52.10
46932;DHT22;32670;51.464;11.964;2023-03-01T06:27:57;21.40;52.20
46932;DHT22;32670;51.464;11.964;2023-03-01T06:30:24;21.40;52.50
46932;DHT22;32670;51.464;11.964;2023-03-01T06:32:50;21.50;52.00
46932;DHT22;32670;51.464;11.964;2023-03-01T06:35:17;21.40;51.40
46932;DHT22;32670;51.464;11.964;2023-03-01T06:37:43;21.50;52.10
46932;DHT22;32670;51.464;11.964;2023-03-01T06:40:10;21.40;48.70
46932;DHT22;32670;51.464;11.964;2023-03-01T06:42:41;20.90;33.50
46932;DHT22;32670;51.464;11.964;2023-03-01T06:45:07;20.20;29.60
46932;DHT22;32670;51.464;11.964;2023-03-01T06:47:33;19.60;29.00
46932;DHT22;32670;51.464;11.964;2023-03-01T06:49:59;19.20;28.70
46932;DHT22;32670;51.464;11.964;2023-03-01T06:52:25;18.70;28.70
46932;DHT22;32670;51.464;11.964;2023-03-01T06:54:51;18.40;28.30
46932;DHT22;32670;51.464;11.964;2023-03-01T06:57:16;18.10;28.30
46932;DHT22;32670;51.464;11.964;2023-03-01T06:59:42;17.80;28.20
46932;DHT22;32670;51.464;11.964;2023-03-01T07:02:13;17.60;28.20
46932;DHT22;32670;51.464;11.964;2023-03-01T07:04:39;17.50;28.10
46932;DHT22;32670;51.464;11.964;2023-03-01T07:07:05;17.40;28.30
46932;DHT22;32670;51.464;11.964;2023-03-01T07:09:30;17.30;28.10
46932;DHT22;32670;51.464;11.964;2023-03-01T07:11:56;17.10;28.10
46932;DHT22;32670;51.464;11.964;2023-03-01T07:14:22;17.00;28.40
46932;DHT22;32670;51.464;11.964;2023-03-01T07:16:49;16.90;28.30
46932;DHT22;32670;51.464;11.964;2023-03-01T07:19:15;16.80;28.00
46932;DHT22;32670;51.464;11.964;2023-03-01T07:21:41;16.70;28.40
46932;DHT22;32670;51.464;11.964;2023-03-01T07:24:07;16.60;28.40
46932;DHT22;32670;51.464;11.964;2023-03-01T07:26:33;16.60;28.40
46932;DHT22;32670;51.464;11.964;2023-03-01T07:28:59;16.50;28.40
46932;DHT22;32670;51.464;11.964;2023-03-01T07:31:25;16.50;28.30
46932;DHT22;32670;51.464;11.964;2023-03-01T07:33:53;16.50;28.20
46932;DHT22;32670;51.464;11.964;2023-03-01T07:36:19;16.40;28.30
46932;DHT22;32670;51.464;11.964;2023-03-01T07:38:44;16.30;28.20
46932;DHT22;32670;51.464;11.964;2023-03-01T07:41:10;16.30;28.50
46932;DHT22;32670;51.464;11.964;2023-03-01T07:43:35;16.20;29.50
46932;DHT22;32670;51.464;11.964;2023-03-01T07:46:01;16.40;30.50
46932;DHT22;32670;51.464;11.964;2023-03-01T07:48:28;16.70;31.60
46932;DHT22;32670;51.464;11.964;2023-03-01T07:50:53;17.10;32.30
46932;DHT22;32670;51.464;11.964;2023-03-01T07:53:19;17.30;32.50
46932;DHT22;32670;51.464;11.964;2023-03-01T07:55:44;17.50;32.80
46932;DHT22;32670;51.464;11.964;2023-03-01T07:58:12;17.70;33.00
46932;DHT22;32670;51.464;11.964;2023-03-01T08:00:38;17.90;33.40
46932;DHT22;32670;51.464;11.964;2023-03-01T08:03:03;18.00;33.60
46932;DHT22;32670;51.464;11.964;2023-03-01T08:05:29;18.10;33.90
46932;DHT22;32670;51.464;11.964;2023-03-01T08:07:54;18.30;34.20
46932;DHT22;32670;51.464;11.964;2023-03-01T08:10:20;18.30;34.30
46932;DHT22;32670;51.464;11.964;2023-03-01T08:12:45;18.40;34.50
46932;DHT22;32670;51.464;11.964;2023-03-01T08:15:11;18.50;34.80
46932;DHT22;32670;51.464;11.964;2023-03-01T08:17:37;18.50;35.40
46932;DHT22;32670;51.464;11.964;2023-03-01T08:20:03;18.50;35.00
46932;DHT22;32670;51.464;11.964;2023-03-01T08:22:31;18.60;35.20
46932;DHT22;32670;51.464;11.964;2023-03-01T08:24:56;18.70;35.50
46932;DHT22;32670;51.464;11.964;2023-03-01T08:27:22;18.70;35.60
46932;DHT22;32670;51.464;11.964;2023-03-01T08:29:47;18.80;35.90
46932;DHT22;32670;51.464;11.964;2023-03-01T08:32:13;18.80;36.00
46932;DHT22;32670;51.464;11.964;2023-03-01T08:34:38;18.80;36.10
46932;DHT22;32670;51.464;11.964;2023-03-01T08:37:04;18.80;36.30
46932;DHT22;32670;51.464;11.964;2023-03-01T08:39:29;18.90;36.40
46932;DHT22;32670;51.464;11.964;2023-03-01T08:41:55;18.90;36.70
46932;DHT22;32670;51.464;11.964;2023-03-01T08:44:21;18.90;36.50
46932;DHT22;32670;51.464;11.964;2023-03-01T08:46:46;19.00;36.60
46932;DHT22;32670;51.464;11.964;2023-03-01T08:49:15;19.00;36.90
46932;DHT22;32670;51.464;11.964;2023-03-01T08:51:41;19.00;37.20
46932;DHT22;32670;51.464;11.964;2023-03-01T08:54:10;19.00;37.10
46932;DHT22;32670;51.464;11.964;2023-03-01T08:56:37;19.10;37.10
46932;DHT22;32670;51.464;11.964;2023-03-01T08:59:02;19.10;37.30
46932;DHT22;32670;51.464;11.964;2023-03-01T09:01:28;19.10;37.70
46932;DHT22;32670;51.464;11.964;2023-03-01T09:03:54;19.10;37.50
46932;DHT22;32670;51.464;11.964;2023-03-01T09:06:19;19.10;37.60
46932;DHT22;32670;51.464;11.964;2023-03-01T09:08:46;19.10;37.70
46932;DHT22;32670;51.464;11.964;2023-03-01T09:11:20;19.20;37.80
46932;DHT22;32670;51.464;11.964;2023-03-01T09:13:46;19.20;37.80
46932;DHT22;32670;51.464;11.964;2023-03-01T09:16:14;19.20;37.90
46932;DHT22;32670;51.464;11.964;2023-03-01T09:18:40;19.20;38.10
46932;DHT22;32670;51.464;11.964;2023-03-01T09:21:07;19.20;38.10
46932;DHT22;32670;51.464;11.964;2023-03-01T09:23:38;19.20;38.00
46932;DHT22;32670;51.464;11.964;2023-03-01T09:26:05;19.20;38.00
46932;DHT22;32670;51.464;11.964;2023-03-01T09:28:30;19.30;38.30
46932;DHT22;32670;51.464;11.964;2023-03-01T09:31:00;19.20;38.20
46932;DHT22;32670;51.464;11.964;2023-03-01T09:33:26;19.30;38.30
46932;DHT22;32670;51.464;11.964;2023-03-01T09:35:57;19.30;38.20
46932;DHT22;32670;51.464;11.964;2023-03-01T09:38:23;19.30;38.40
46932;DHT22;32670;51.464;11.964;2023-03-01T09:40:48;19.30;38.50
46932;DHT22;32670;51.464;11.964;2023-03-01T09:43:41;19.30;38.50
46932;DHT22;32670;51.464;11.964;2023-03-01T09:46:10;19.30;38.60
46932;DHT22;32670;51.464;11.964;2023-03-01T09:48:44;19.30;38.90
46932;DHT22;32670;51.464;11.964;2023-03-01T09:51:32;19.40;39.30
46932;DHT22;32670;51.464;11.964;2023-03-01T09:53:58;19.40;39.30
46932;DHT22;32670;51.464;11.964;2023-03-01T09:56:47;19.40;39.30
46932;DHT22;32670;51.464;11.964;2023-03-01T10:02:05;19.40;39.20
46932;DHT22;32670;51.464;11.964;2023-03-01T10:04:50;19.40;39.20
46932;DHT22;32670;51.464;11.964;2023-03-01T10:10:23;19.40;39.20
46932;DHT22;32670;51.464;11.964;2023-03-01T10:12:50;19.40;39.20
46932;DHT22;32670;51.464;11.964;2023-03-01T10:15:29;19.50;39.30
46932;DHT22;32670;51.464;11.964;2023-03-01T10:18:09;19.50;39.30
46932;DHT22;32670;51.464;11.964;2023-03-01T10:21:17;19.50;39.30
46932;DHT22;32670;51.464;11.964;2023-03-01T10:23:43;19.50;39.30
46932;DHT22;32670;51.464;11.964;2023-03-01T10:26:43;19.50;39.40
46932;DHT22;32670;51.464;11.964;2023-03-01T10:29:11;19.50;39.30
46932;DHT22;32670;51.464;11.964;2023-03-01T10:31:49;19.50;39.40
46932;DHT22;32670;51.464;11.964;2023-03-01T10:36:44;19.50;39.50
46932;DHT22;32670;51.464;11.964;2023-03-01T10:39:22;19.50;39.40
46932;DHT22;32670;51.464;11.964;2023-03-01T10:42:03;19.50;39.40
46932;DHT22;32670;51.464;11.964;2023-03-01T10:44:42;19.50;39.50
46932;DHT22;32670;51.464;11.964;2023-03-01T10:47:14;19.50;39.50
46932;DHT22;32670;51.464;11.964;2023-03-01T10:49:52;19.50;39.60
46932;DHT22;32670;51.464;11.964;2023-03-01T10:52:20;19.50;39.50
46932;DHT22;32670;51.464;11.964;2023-03-01T10:55:01;19.50;39.50
46932;DHT22;32670;51.464;11.964;2023-03-01T10:57:33;19.50;39.60
46932;DHT22;32670;51.464;11.964;2023-03-01T11:00:15;19.50;39.60
46932;DHT22;32670;51.464;11.964;2023-03-01T11:02:43;19.50;39.60
46932;DHT22;32670;51.464;11.964;2023-03-01T11:07:54;19.60;39.70
46932;DHT22;32670;51.464;11.964;2023-03-01T11:10:32;19.60;39.60
46932;DHT22;32670;51.464;11.964;2023-03-01T11:13:17;19.60;39.60
46932;DHT22;32670;51.464;11.964;2023-03-01T11:15:57;19.60;39.60
46932;DHT22;32670;51.464;11.964;2023-03-01T11:18:23;19.60;39.60
46932;DHT22;32670;51.464;11.964;2023-03-01T11:20:51;19.60;39.70
46932;DHT22;32670;51.464;11.964;2023-03-01T11:23:18;19.60;39.60
46932;DHT22;32670;51.464;11.964;2023-03-01T11:25:55;19.60;39.70
46932;DHT22;32670;51.464;11.964;2023-03-01T11:28:22;19.60;39.70
46932;DHT22;32670;51.464;11.964;2023-03-01T11:31:05;19.60;39.70
46932;DHT22;32670;51.464;11.964;2023-03-01T11:33:48;19.60;39.70
46932;DHT22;32670;51.464;11.964;2023-03-01T11:36:49;19.60;39.70
46932;DHT22;32670;51.464;11.964;2023-03-01T11:42:02;19.60;40.40
46932;DHT22;32670;51.464;11.964;2023-03-01T11:44:31;19.70;40.40
46932;DHT22;32670;51.464;11.964;2023-03-01T11:47:04;19.70;40.20
46932;DHT22;32670;51.464;11.964;2023-03-01T11:58:15;19.70;40.00
46932;DHT22;32670;51.464;11.964;2023-03-01T12:01:02;19.70;40.10
46932;DHT22;32670;51.464;11.964;2023-03-01T12:04:15;19.70;40.00
46932;DHT22;32670;51.464;11.964;2023-03-01T12:06:57;19.70;40.00
46932;DHT22;32670;51.464;11.964;2023-03-01T12:15:54;19.70;39.90
46932;DHT22;32670;51.464;11.964;2023-03-01T12:18:30;19.70;40.00
46932;DHT22;32670;51.464;11.964;2023-03-01T12:30:00;19.70;39.90
46932;DHT22;32670;51.464;11.964;2023-03-01T12:47:05;19.70;40.00
46932;DHT22;32670;51.464;11.964;2023-03-01T12:49:36;19.70;40.10
46932;DHT22;32670;51.464;11.964;2023-03-01T12:52:14;19.70;40.10
46932;DHT22;32670;51.464;11.964;2023-03-01T12:54:42;19.70;40.10
46932;DHT22;32670;51.464;11.964;2023-03-01T12:57:31;19.70;40.00
46932;DHT22;32670;51.464;11.964;2023-03-01T13:02:52;19.70;40.10
46932;DHT22;32670;51.464;11.964;2023-03-01T13:08:16;19.80;40.10
46932;DHT22;32670;51.464;11.964;2023-03-01T13:10:58;19.70;40.00
46932;DHT22;32670;51.464;11.964;2023-03-01T13:13:27;19.70;40.00
46932;DHT22;32670;51.464;11.964;2023-03-01T13:15:53;19.70;40.10
46932;DHT22;32670;51.464;11.964;2023-03-01T13:20:48;19.80;40.20
46932;DHT22;32670;51.464;11.964;2023-03-01T13:26:01;19.80;40.20
46932;DHT22;32670;51.464;11.964;2023-03-01T13:33:55;19.80;40.20
46932;DHT22;32670;51.464;11.964;2023-03-01T13:49:33;19.80;40.20
46932;DHT22;32670;51.464;11.964;2023-03-01T13:52:02;19.80;40.20
46932;DHT22;32670;51.464;11.964;2023-03-01T13:54:33;19.80;40.20
46932;DHT22;32670;51.464;11.964;2023-03-01T13:57:00;19.80;40.20
46932;DHT22;32670;51.464;11.964;2023-03-01T13:59:26;19.80;40.20
46932;DHT22;32670;51.464;11.964;2023-03-01T14:01:54;19.80;40.20
46932;DHT22;32670;51.464;11.964;2023-03-01T14:04:23;19.90;40.30
46932;DHT22;32670;51.464;11.964;2023-03-01T14:06:49;19.80;40.20
46932;DHT22;32670;51.464;11.964;2023-03-01T14:09:22;19.80;40.20
46932;DHT22;32670;51.464;11.964;2023-03-01T14:12:24;19.80;40.30
46932;DHT22;32670;51.464;11.964;2023-03-01T14:20:40;19.80;40.20
46932;DHT22;32670;51.464;11.964;2023-03-01T14:23:16;19.90;40.20
46932;DHT22;32670;51.464;11.964;2023-03-01T14:25:51;19.80;40.20
46932;DHT22;32670;51.464;11.964;2023-03-01T14:28:23;19.80;40.20
46932;DHT22;32670;51.464;11.964;2023-03-01T14:30:51;19.80;40.20
46932;DHT22;32670;51.464;11.964;2023-03-01T14:33:23;19.80;40.30
46932;DHT22;32670;51.464;11.964;2023-03-01T14:38:37;19.90;40.30
46932;DHT22;32670;51.464;11.964;2023-03-01T14:41:24;19.90;40.20
46932;DHT22;32670;51.464;11.964;2023-03-01T14:43:53;19.90;40.30
46932;DHT22;32670;51.464;11.964;2023-03-01T14:46:24;19.90;40.30
46932;DHT22;32670;51.464;11.964;2023-03-01T14:48:54;19.90;40.30
46932;DHT22;32670;51.464;11.964;2023-03-01T14:51:20;19.90;40.30
46932;DHT22;32670;51.464;11.964;2023-03-01T14:53:46;19.90;40.30
46932;DHT22;32670;51.464;11.964;2023-03-01T14:56:14;19.90;40.30
46932;DHT22;32670;51.464;11.964;2023-03-01T14:58:41;19.90;40.30
46932;DHT22;32670;51.464;11.964;2023-03-01T15:01:06;19.90;40.30
46932;DHT22;32670;51.464;11.964;2023-03-01T15:03:42;19.90;40.30
46932;DHT22;32670;51.464;11.964;2023-03-01T15:06:14;19.90;40.40
46932;DHT22;32670;51.464;11.964;2023-03-01T15:08:42;19.90;40.40
46932;DHT22;32670;51.464;11.964;2023-03-01T15:11:29;19.90;40.40
46932;DHT22;32670;51.464;11.964;2023-03-01T15:13:54;19.90;40.50
46932;DHT22;32670;51.464;11.964;2023-03-01T15:16:31;19.90;40.30
46932;DHT22;32670;51.464;11.964;2023-03-01T15:19:03;19.90;40.40
46932;DHT22;32670;51.464;11.964;2023-03-01T15:21:33;19.90;40.30
46932;DHT22;32670;51.464;11.964;2023-03-01T15:24:03;19.90;40.40
46932;DHT22;32670;51.464;11.964;2023-03-01T15:26:40;20.00;40.50
46932;DHT22;32670;51.464;11.964;2023-03-01T15:29:15;19.90;40.30
46932;DHT22;32670;51.464;11.964;2023-03-01T15:31:42;19.90;40.30
46932;DHT22;32670;51.464;11.964;2023-03-01T15:34:19;20.00;40.40
46932;DHT22;32670;51.464;11.964;2023-03-01T15:36:47;19.90;40.40
46932;DHT22;32670;51.464;11.964;2023-03-01T15:39:35;19.90;40.40
46932;DHT22;32670;51.464;11.964;2023-03-01T15:42:07;20.00;40.40
46932;DHT22;32670;51.464;11.964;2023-03-01T15:44:35;20.00;40.40
46932;DHT22;32670;51.464;11.964;2023-03-01T15:47:01;20.00;40.40
46932;DHT22;32670;51.464;11.964;2023-03-01T15:49:42;19.90;40.30
46932;DHT22;32670;51.464;11.964;2023-03-01T15:52:15;20.00;40.40
46932;DHT22;32670;51.464;11.964;2023-03-01T15:54:44;20.00;40.40
46932;DHT22;32670;51.464;11.964;2023-03-01T15:57:14;20.00;40.50
46932;DHT22;32670;51.464;11.964;2023-03-01T15:59:40;20.00;40.40
46932;DHT22;32670;51.464;11.964;2023-03-01T16:02:10;20.00;40.50
46932;DHT22;32670;51.464;11.964;2023-03-01T16:04:38;20.00;40.40
46932;DHT22;32670;51.464;11.964;2023-03-01T16:07:06;20.00;40.50
46932;DHT22;32670;51.464;11.964;2023-03-01T16:09:32;20.00;40.50
46932;DHT22;32670;51.464;11.964;2023-03-01T16:11:57;20.00;40.50
46932;DHT22;32670;51.464;11.964;2023-03-01T16:14:23;19.90;40.40
46932;DHT22;32670;51.464;11.964;2023-03-01T16:16:48;20.00;40.50
46932;DHT22;32670;51.464;11.964;2023-03-01T16:19:14;20.00;40.50
46932;DHT22;32670;51.464;11.964;2023-03-01T16:21:41;20.00;40.50
46932;DHT22;32670;51.464;11.964;2023-03-01T16:24:08;20.00;40.50
46932;DHT22;32670;51.464;11.964;2023-03-01T16:26:33;20.00;40.50
46932;DHT22;32670;51.464;11.964;2023-03-01T16:28:58;20.00;40.50
46932;DHT22;32670;51.464;11.964;2023-03-01T16:31:24;20.00;40.50
46932;DHT22;32670;51.464;11.964;2023-03-01T16:33:54;20.00;40.50
46932;DHT22;32670;51.464;11.964;2023-03-01T16:36:20;20.00;40.50
46932;DHT22;32670;51.464;11.964;2023-03-01T16:38:48;20.00;40.50
46932;DHT22;32670;51.464;11.964;2023-03-01T16:41:16;20.00;40.60
46932;DHT22;32670;51.464;11.964;2023-03-01T16:43:43;20.00;40.50
46932;DHT22;32670;51.464;11.964;2023-03-01T16:46:12;20.00;40.50
46932;DHT22;32670;51.464;11.964;2023-03-01T16:48:38;20.00;40.50
46932;DHT22;32670;51.464;11.964;2023-03-01T16:51:04;20.00;40.50
46932;DHT22;32670;51.464;11.964;2023-03-01T16:53:29;20.00;40.50
46932;DHT22;32670;51.464;11.964;2023-03-01T16:55:56;20.00;40.60
46932;DHT22;32670;51.464;11.964;2023-03-01T16:58:22;20.00;40.60
46932;DHT22;32670;51.464;11.964;2023-03-01T17:00:50;20.00;40.60
46932;DHT22;32670;51.464;11.964;2023-03-01T17:03:16;20.00;40.60